Terminal Aerodrome Forecast
Issued by NWS Cleveland, OH

Home | Current Version | Previous Version | Graphics & Text | Print | Product List | Glossary On
Versions: 1 2 3 4 5 6 7 8 9 10 11 12 13 14 15 16 17 18 19 20 21 22 23 24 25 26 27 28 29
003
FTUS41 KCLE 242336
TAFCLE
TAF
KCLE 242336Z 2500/2606 20020G30KT P6SM SCT045 BKN200
     FM250300 19014KT P6SM -SHRA VCTS SCT045CB BKN150
      TEMPO 2506/2510 26020G40KT 3SM TSRA BKN020CB
     FM251000 23015G25KT P6SM VCSH OVC025
     FM251400 23015G25KT P6SM OVC025
     FM251800 25018G28KT 6SM -SHSN OVC020
     FM260000 26015G23KT P6SM BKN020=

USA.gov is the U.S. government's official web portal to all federal, state and local government web resources and services.